createdAt,value
2022-12-24T00:00:18.076Z,10.60
2022-12-24T00:02:48.218Z,10.60
2022-12-24T00:05:18.723Z,10.50
2022-12-24T00:07:51.369Z,10.50
2022-12-24T00:10:21.737Z,10.50
2022-12-24T00:12:51.817Z,10.40
2022-12-24T00:15:22.124Z,10.50
2022-12-24T00:17:52.208Z,10.50
2022-12-24T00:20:25.020Z,10.50
2022-12-24T00:22:57.740Z,10.50
2022-12-24T00:25:27.785Z,10.40
2022-12-24T00:27:57.910Z,10.30
2022-12-24T00:30:27.989Z,10.30
2022-12-24T00:32:58.490Z,10.40
2022-12-24T00:35:28.585Z,10.40
2022-12-24T00:38:01.577Z,10.40
2022-12-24T00:40:32.301Z,10.40
2022-12-24T00:43:02.700Z,10.40
2022-12-24T00:45:32.909Z,10.50
2022-12-24T00:48:03.060Z,10.50
2022-12-24T00:50:33.160Z,10.60
2022-12-24T00:53:05.981Z,10.60
2022-12-24T00:55:36.057Z,10.70
2022-12-24T00:58:06.237Z,10.70
2022-12-24T01:00:39.474Z,10.80
2022-12-24T01:03:09.684Z,10.80
2022-12-24T01:05:37.315Z,10.70
2022-12-24T01:08:11.586Z,10.70
2022-12-24T01:10:41.647Z,10.80
2022-12-24T01:13:11.824Z,10.80
2022-12-24T01:15:42.031Z,10.80
2022-12-24T01:18:12.228Z,10.80
2022-12-24T01:20:42.346Z,10.80
2022-12-24T01:23:15.134Z,10.80
2022-12-24T01:25:46.510Z,10.80
2022-12-24T01:28:16.562Z,10.80
2022-12-24T01:30:47.112Z,10.90
2022-12-24T01:33:17.422Z,10.90
2022-12-24T01:35:47.768Z,10.90
2022-12-24T01:38:22.672Z,10.90
2022-12-24T01:41:05.517Z,10.90
2022-12-24T01:43:36.724Z,10.90
2022-12-24T01:46:12.859Z,10.80
2022-12-24T01:48:48.362Z,10.70
2022-12-24T01:51:27.174Z,10.80
2022-12-24T01:54:06.874Z,10.80
2022-12-24T01:56:43.010Z,10.70
2022-12-24T01:59:19.202Z,10.70
2022-12-24T02:01:50.992Z,10.70
2022-12-24T02:04:33.224Z,10.60
2022-12-24T02:07:03.890Z,10.50
2022-12-24T02:09:39.250Z,10.50
2022-12-24T02:12:11.505Z,10.50
2022-12-24T02:14:42.297Z,10.50
2022-12-24T02:17:29.498Z,10.40
2022-12-24T02:20:55.974Z,10.40
2022-12-24T02:24:06.059Z,10.30
2022-12-24T02:27:05.383Z,10.30
2022-12-24T02:30:19.416Z,10.20
2022-12-24T02:33:14.294Z,10.20
2022-12-24T02:35:56.190Z,10.20
2022-12-24T02:38:34.417Z,10.20
2022-12-24T02:41:12.044Z,10.10
2022-12-24T02:43:48.784Z,10.20
2022-12-24T02:46:28.560Z,10.20
2022-12-24T02:49:03.823Z,10.20
2022-12-24T02:51:33.917Z,10.20
2022-12-24T02:54:04.436Z,10.30
2022-12-24T02:57:05.803Z,10.30
2022-12-24T03:00:02.000Z,10.30
2022-12-24T03:02:53.571Z,10.40
2022-12-24T03:05:34.098Z,10.40
2022-12-24T03:08:12.832Z,10.50
2022-12-24T03:10:54.693Z,10.50
2022-12-24T03:13:28.928Z,10.50
2022-12-24T03:15:59.309Z,10.40
2022-12-24T03:18:33.700Z,10.40
2022-12-24T03:21:12.572Z,10.40
2022-12-24T03:23:43.117Z,10.30
2022-12-24T03:26:17.314Z,10.20
2022-12-24T03:28:48.585Z,10.20
2022-12-24T03:31:19.755Z,10.10
2022-12-24T03:33:53.599Z,10.10
2022-12-24T03:36:25.425Z,10.10
2022-12-24T03:38:59.777Z,10.10
2022-12-24T03:41:29.905Z,10.10
2022-12-24T03:44:00.157Z,10.20
2022-12-24T03:46:30.437Z,10.10
2022-12-24T03:49:04.116Z,10.20
2022-12-24T03:51:36.531Z,10.20
2022-12-24T03:54:06.945Z,10.20
2022-12-24T03:56:39.136Z,10.30
2022-12-24T03:59:09.212Z,10.30
2022-12-24T04:01:39.580Z,10.30
2022-12-24T04:04:12.424Z,10.30
2022-12-24T04:06:42.568Z,10.30
2022-12-24T04:09:12.661Z,10.30
2022-12-24T04:11:42.850Z,10.30
2022-12-24T04:14:13.017Z,10.30
2022-12-24T04:16:43.248Z,10.40
2022-12-24T04:19:16.041Z,10.40
2022-12-24T04:21:46.165Z,10.30
2022-12-24T04:24:16.285Z,10.00
2022-12-24T04:26:46.248Z,9.90
2022-12-24T04:29:16.504Z,9.90
2022-12-24T04:31:46.715Z,9.80
2022-12-24T04:34:19.639Z,9.70
2022-12-24T04:36:49.827Z,9.70
2022-12-24T04:39:19.955Z,9.60
2022-12-24T04:41:50.118Z,9.60
2022-12-24T04:44:20.232Z,9.50
2022-12-24T04:46:50.312Z,9.50
2022-12-24T04:49:22.990Z,9.50
2022-12-24T04:51:53.115Z,9.50
2022-12-24T04:54:23.217Z,9.40
2022-12-24T04:56:53.313Z,9.40
2022-12-24T04:59:23.411Z,9.40
2022-12-24T05:01:53.754Z,9.40
2022-12-24T05:04:26.545Z,9.40
2022-12-24T05:06:56.684Z,9.50
2022-12-24T05:09:26.825Z,9.70
2022-12-24T05:11:56.974Z,9.80
2022-12-24T05:14:27.114Z,10.00
2022-12-24T05:16:59.585Z,10.00
2022-12-24T05:19:32.388Z,10.00
2022-12-24T05:22:15.359Z,10.10
2022-12-24T05:24:58.092Z,10.10
2022-12-24T05:27:28.328Z,10.10
2022-12-24T05:29:58.557Z,10.10
2022-12-24T05:32:28.801Z,10.10
2022-12-24T05:35:01.519Z,10.10
2022-12-24T05:37:31.681Z,10.00
2022-12-24T05:40:01.777Z,10.00
2022-12-24T05:42:33.000Z,10.00
2022-12-24T05:45:06.160Z,10.10
2022-12-24T05:47:42.896Z,10.00
2022-12-24T05:50:16.520Z,9.90
2022-12-24T05:52:46.639Z,9.80
2022-12-24T05:55:16.755Z,9.80
2022-12-24T05:57:46.946Z,9.80
2022-12-24T06:00:18.307Z,9.80
2022-12-24T06:02:50.030Z,9.90
2022-12-24T06:05:22.819Z,9.90
2022-12-24T06:07:53.075Z,9.90
2022-12-24T06:10:23.285Z,10.00
2022-12-24T06:12:53.478Z,10.00
2022-12-24T06:15:24.326Z,10.00
2022-12-24T06:17:54.845Z,10.00
2022-12-24T06:20:27.647Z,10.00
2022-12-24T06:22:57.809Z,10.00
2022-12-24T06:25:27.997Z,10.00
2022-12-24T06:27:58.138Z,10.00
2022-12-24T06:30:32.400Z,10.00
2022-12-24T06:33:02.539Z,10.00
2022-12-24T06:35:38.633Z,10.00
2022-12-24T06:38:08.918Z,10.00
2022-12-24T06:40:40.855Z,10.00
2022-12-24T06:43:11.132Z,10.00
2022-12-24T06:45:41.639Z,10.10
2022-12-24T06:48:12.337Z,10.10
2022-12-24T06:50:46.886Z,10.10
2022-12-24T06:53:24.226Z,10.10
2022-12-24T06:55:55.437Z,10.10
2022-12-24T06:58:25.695Z,10.10
2022-12-24T07:00:55.862Z,10.00
2022-12-24T07:03:27.033Z,10.10
2022-12-24T07:06:02.586Z,10.00
2022-12-24T07:08:36.371Z,9.90
2022-12-24T07:11:07.683Z,9.90
2022-12-24T07:13:38.976Z,9.80
2022-12-24T07:16:09.914Z,9.80
2022-12-24T07:18:40.637Z,9.70
2022-12-24T07:21:13.627Z,9.70
2022-12-24T07:23:43.858Z,9.60
2022-12-24T07:26:14.354Z,9.60
2022-12-24T07:28:44.523Z,9.60
2022-12-24T07:31:17.184Z,9.60
2022-12-24T07:33:47.495Z,9.60
2022-12-24T07:36:24.559Z,9.60
2022-12-24T07:38:54.725Z,9.60
2022-12-24T07:41:25.490Z,9.70
2022-12-24T07:43:55.584Z,9.70
2022-12-24T07:46:25.686Z,9.80
2022-12-24T07:48:55.842Z,9.80
2022-12-24T07:51:28.490Z,9.80
2022-12-24T07:54:01.984Z,9.70
2022-12-24T07:56:34.550Z,9.80
2022-12-24T07:59:04.681Z,9.80
2022-12-24T08:01:34.898Z,9.80
2022-12-24T08:04:05.141Z,9.80
2022-12-24T08:06:37.856Z,9.90
2022-12-24T08:09:09.685Z,9.90
2022-12-24T08:11:43.420Z,9.90
2022-12-24T08:14:18.613Z,10.00
2022-12-24T08:16:48.898Z,10.20
2022-12-24T08:19:19.697Z,10.40
2022-12-24T08:21:52.375Z,10.50
2022-12-24T08:24:22.568Z,10.60
2022-12-24T08:26:55.255Z,10.70
2022-12-24T08:29:25.388Z,10.70
2022-12-24T08:31:55.516Z,10.90
2022-12-24T08:34:25.671Z,11.00
2022-12-24T08:36:58.331Z,11.10
2022-12-24T08:39:28.414Z,11.30
2022-12-24T08:41:59.185Z,11.40
2022-12-24T08:44:29.313Z,11.50
2022-12-24T08:46:59.434Z,11.70
2022-12-24T08:49:29.519Z,11.90
2022-12-24T08:52:03.745Z,12.10
2022-12-24T08:54:33.780Z,12.30
2022-12-24T08:57:03.927Z,12.50
2022-12-24T08:59:34.032Z,12.80
2022-12-24T09:02:04.534Z,13.00
2022-12-24T09:04:34.756Z,13.30
2022-12-24T09:07:07.464Z,13.30
2022-12-24T09:09:38.694Z,13.30
2022-12-24T09:12:11.550Z,13.20
2022-12-24T09:14:41.623Z,13.10
2022-12-24T09:17:11.702Z,13.20
2022-12-24T09:19:41.999Z,13.80
2022-12-24T09:22:14.745Z,14.50
2022-12-24T09:24:44.810Z,15.20
2022-12-24T09:27:14.932Z,15.60
2022-12-24T09:29:46.013Z,15.70
2022-12-24T09:32:16.869Z,15.10
2022-12-24T09:34:47.109Z,14.70
2022-12-24T09:37:19.807Z,14.30
2022-12-24T09:39:50.700Z,14.00
2022-12-24T09:42:41.278Z,13.60
2022-12-24T09:45:23.015Z,13.30
2022-12-24T09:47:57.201Z,13.20
2022-12-24T09:50:42.848Z,13.10
2022-12-24T09:53:25.365Z,13.30
2022-12-24T09:56:02.151Z,13.20
2022-12-24T09:58:40.282Z,13.10
2022-12-24T10:01:13.526Z,12.90
2022-12-24T10:03:44.591Z,12.70
2022-12-24T10:06:25.180Z,12.50
2022-12-24T10:09:21.829Z,12.50
2022-12-24T10:12:00.223Z,12.60
2022-12-24T10:14:52.013Z,12.60
2022-12-24T10:17:44.097Z,12.50
2022-12-24T10:20:38.914Z,12.40
2022-12-24T10:23:22.227Z,12.40
2022-12-24T10:26:10.863Z,12.50
2022-12-24T10:28:49.897Z,12.50
2022-12-24T10:31:27.533Z,12.60
2022-12-24T10:34:04.544Z,12.60
2022-12-24T10:36:35.736Z,12.60
2022-12-24T10:39:06.206Z,12.70
2022-12-24T10:41:40.119Z,12.70
2022-12-24T10:44:19.708Z,12.60
2022-12-24T10:46:50.407Z,12.60
2022-12-24T10:49:29.221Z,12.60
2022-12-24T10:52:06.271Z,12.60
2022-12-24T10:54:39.576Z,12.50
2022-12-24T10:57:29.629Z,12.40
2022-12-24T11:00:03.661Z,12.30
2022-12-24T11:02:37.644Z,12.30
2022-12-24T11:05:32.393Z,12.40
2022-12-24T11:08:09.368Z,12.50
2022-12-24T11:10:47.792Z,12.50
2022-12-24T11:13:38.843Z,12.50
2022-12-24T11:16:17.918Z,12.60
2022-12-24T11:18:54.601Z,12.70
2022-12-24T11:21:29.333Z,12.90
2022-12-24T11:24:04.260Z,13.10
2022-12-24T11:26:35.368Z,13.30
2022-12-24T11:29:22.048Z,13.50
2022-12-24T11:31:53.889Z,13.60
2022-12-24T11:34:32.779Z,13.60
2022-12-24T11:37:18.070Z,13.60
2022-12-24T11:39:57.559Z,13.60
2022-12-24T11:42:35.458Z,13.50
2022-12-24T11:45:25.261Z,13.20
2022-12-24T11:47:56.959Z,12.90
2022-12-24T11:50:32.613Z,12.70
2022-12-24T11:53:14.774Z,12.60
2022-12-24T11:55:51.273Z,12.50
2022-12-24T11:58:31.501Z,12.40
2022-12-24T12:01:15.955Z,12.40
2022-12-24T12:03:51.983Z,12.40
2022-12-24T12:06:42.819Z,12.50
2022-12-24T12:09:20.888Z,12.70
2022-12-24T12:11:58.017Z,13.00
2022-12-24T12:14:36.326Z,12.90
2022-12-24T12:17:32.462Z,13.10
2022-12-24T12:20:10.667Z,13.30
2022-12-24T12:22:51.459Z,13.30
2022-12-24T12:25:29.292Z,13.10
2022-12-24T12:28:03.313Z,12.90
2022-12-24T12:30:38.522Z,12.90
2022-12-24T12:33:26.449Z,12.90
2022-12-24T12:36:00.280Z,13.00
2022-12-24T12:38:32.181Z,13.20
2022-12-24T12:41:19.605Z,13.40
2022-12-24T12:44:34.922Z,13.50
2022-12-24T12:47:34.553Z,13.60
2022-12-24T12:50:21.606Z,13.70
2022-12-24T12:53:26.969Z,13.70
2022-12-24T12:56:12.307Z,13.80
2022-12-24T12:58:51.306Z,13.90
2022-12-24T13:01:37.145Z,14.00
2022-12-24T13:05:05.097Z,14.20
2022-12-24T13:08:19.105Z,14.30
2022-12-24T13:11:19.681Z,14.10
2022-12-24T13:14:38.085Z,13.90
2022-12-24T13:18:00.297Z,13.70
2022-12-24T13:20:33.663Z,13.50
2022-12-24T13:23:16.689Z,13.40
2022-12-24T13:25:52.016Z,13.20
2022-12-24T13:28:39.828Z,13.10
2022-12-24T13:31:28.957Z,13.10
2022-12-24T13:34:30.050Z,13.00
2022-12-24T13:37:22.168Z,12.90
2022-12-24T13:40:24.801Z,13.10
2022-12-24T13:43:12.573Z,13.20
2022-12-24T13:45:54.623Z,13.20
2022-12-24T13:48:37.902Z,13.20
2022-12-24T13:51:28.305Z,13.20
2022-12-24T13:54:02.956Z,13.20
2022-12-24T13:56:39.633Z,13.10
2022-12-24T13:59:34.538Z,12.90
2022-12-24T14:02:21.022Z,12.70
2022-12-24T14:04:54.852Z,12.50
2022-12-24T14:07:25.228Z,12.30
2022-12-24T14:09:56.007Z,12.20
2022-12-24T14:12:51.847Z,12.20
2022-12-24T14:16:05.662Z,12.00
2022-12-24T14:18:41.960Z,11.90
2022-12-24T14:21:23.950Z,11.80
2022-12-24T14:24:00.423Z,11.70
2022-12-24T14:26:36.198Z,11.50
2022-12-24T14:29:24.867Z,11.50
2022-12-24T14:31:58.636Z,11.40
2022-12-24T14:34:29.635Z,11.30
2022-12-24T14:37:02.364Z,11.30
2022-12-24T14:39:38.830Z,11.30
2022-12-24T14:42:32.015Z,11.30
2022-12-24T14:45:22.312Z,11.30
2022-12-24T14:48:05.316Z,11.30
2022-12-24T14:50:54.083Z,11.30
2022-12-24T14:53:58.444Z,11.30
2022-12-24T14:56:28.527Z,11.30
2022-12-24T14:59:05.052Z,11.20
2022-12-24T15:01:37.886Z,11.10
2022-12-24T15:04:19.430Z,11.10
2022-12-24T15:06:57.600Z,11.00
2022-12-24T15:09:31.950Z,11.00
2022-12-24T15:12:06.175Z,10.90
2022-12-24T15:14:48.462Z,10.90
2022-12-24T15:17:21.306Z,10.90
2022-12-24T15:19:56.682Z,11.00
2022-12-24T15:22:34.624Z,11.20
2022-12-24T15:25:04.774Z,11.10
2022-12-24T15:27:41.825Z,11.10
2022-12-24T15:30:19.369Z,11.00
2022-12-24T15:32:54.166Z,11.00
2022-12-24T15:36:06.946Z,11.10
2022-12-24T15:38:40.823Z,11.00
2022-12-24T15:41:22.385Z,11.00
2022-12-24T15:43:56.001Z,10.80
2022-12-24T15:46:30.093Z,10.70
2022-12-24T15:49:05.688Z,10.60
2022-12-24T15:51:40.799Z,10.40
2022-12-24T15:54:22.400Z,10.40
2022-12-24T15:56:52.599Z,10.30
2022-12-24T15:59:36.542Z,10.20
2022-12-24T16:02:35.718Z,10.20
2022-12-24T16:05:42.176Z,10.10
2022-12-24T16:08:31.579Z,10.00
2022-12-24T16:11:19.638Z,9.90
2022-12-24T16:14:21.169Z,9.80
2022-12-24T16:16:54.709Z,9.70
2022-12-24T16:19:28.149Z,9.70
2022-12-24T16:22:24.742Z,9.70
2022-12-24T16:24:56.141Z,9.70
2022-12-24T16:29:54.406Z,9.70
2022-12-24T16:32:38.016Z,9.80
2022-12-24T16:35:23.070Z,9.70
2022-12-24T16:37:56.107Z,9.70
2022-12-24T16:40:28.027Z,9.60
2022-12-24T16:43:23.810Z,9.60
2022-12-24T16:45:54.198Z,9.60
2022-12-24T16:48:30.105Z,9.50
2022-12-24T16:51:00.830Z,9.50
2022-12-24T16:53:33.673Z,9.40
2022-12-24T16:56:03.953Z,9.50
2022-12-24T16:58:34.058Z,9.50
2022-12-24T17:01:11.587Z,9.50
2022-12-24T17:03:41.967Z,9.40
2022-12-24T17:06:12.473Z,9.30
2022-12-24T17:08:45.147Z,9.20
2022-12-24T17:11:15.268Z,9.20
2022-12-24T17:13:45.425Z,9.10
2022-12-24T17:16:16.332Z,9.00
2022-12-24T17:18:48.135Z,8.90
2022-12-24T17:21:18.173Z,8.90
2022-12-24T17:23:50.890Z,8.80
2022-12-24T17:26:23.563Z,8.80
2022-12-24T17:28:57.194Z,8.70
2022-12-24T17:31:28.391Z,8.70
2022-12-24T17:33:58.687Z,8.60
2022-12-24T17:36:29.451Z,8.60
2022-12-24T17:39:08.274Z,8.60
2022-12-24T17:41:38.642Z,8.60
2022-12-24T17:44:09.109Z,8.60
2022-12-24T17:46:39.584Z,8.50
2022-12-24T17:49:10.161Z,8.50
2022-12-24T17:51:45.268Z,8.50
2022-12-24T17:54:18.855Z,8.50
2022-12-24T17:56:49.174Z,8.40
2022-12-24T17:59:22.125Z,8.40
2022-12-24T18:01:52.610Z,8.50
2022-12-24T18:04:23.279Z,8.50
2022-12-24T18:07:01.782Z,8.50
2022-12-24T18:09:35.402Z,8.50
2022-12-24T18:12:07.728Z,8.60
2022-12-24T18:14:37.927Z,8.60
2022-12-24T18:17:08.209Z,8.70
2022-12-24T18:19:41.466Z,8.70
2022-12-24T18:22:13.715Z,8.60
2022-12-24T18:24:49.023Z,8.70
2022-12-24T18:27:19.192Z,8.70
2022-12-24T18:29:49.252Z,8.80
2022-12-24T18:32:19.509Z,8.80
2022-12-24T18:34:49.581Z,8.70
2022-12-24T18:37:19.678Z,8.70
2022-12-24T18:39:52.456Z,8.70
2022-12-24T18:42:22.815Z,8.70
2022-12-24T18:44:53.255Z,8.70
2022-12-24T18:47:23.370Z,8.70
2022-12-24T18:49:53.487Z,8.70
2022-12-24T18:52:27.717Z,8.70
2022-12-24T18:55:00.557Z,8.70
2022-12-24T18:57:30.806Z,8.70
2022-12-24T19:00:00.873Z,8.70
2022-12-24T19:02:31.046Z,8.70
2022-12-24T19:05:01.210Z,8.70
2022-12-24T19:07:31.359Z,8.60
2022-12-24T19:10:06.876Z,8.60
2022-12-24T19:12:37.189Z,8.70
2022-12-24T19:15:09.807Z,8.70
2022-12-24T19:17:39.868Z,8.70
2022-12-24T19:20:13.292Z,8.70
2022-12-24T19:22:43.365Z,8.70
2022-12-24T19:25:16.170Z,8.70
2022-12-24T19:27:46.316Z,8.80
2022-12-24T19:30:19.558Z,8.80
2022-12-24T19:32:49.981Z,8.80
2022-12-24T19:35:20.211Z,8.80
2022-12-24T19:37:50.362Z,8.70
2022-12-24T19:40:23.069Z,8.70
2022-12-24T19:42:53.260Z,8.80
2022-12-24T19:45:24.757Z,8.90
2022-12-24T19:47:56.999Z,9.00
2022-12-24T19:50:27.094Z,9.00
2022-12-24T19:52:57.586Z,9.00
2022-12-24T19:55:30.366Z,9.00
2022-12-24T19:58:00.509Z,9.00
2022-12-24T20:00:30.789Z,8.90
2022-12-24T20:03:00.991Z,8.90
2022-12-24T20:05:33.518Z,8.90
2022-12-24T20:08:03.710Z,8.90
2022-12-24T20:10:41.614Z,8.80
2022-12-24T20:13:12.666Z,8.90
2022-12-24T20:15:43.876Z,8.90
2022-12-24T20:18:15.703Z,8.90
2022-12-24T20:20:45.812Z,8.90
2022-12-24T20:23:15.933Z,8.90
2022-12-24T20:25:48.662Z,8.90
2022-12-24T20:28:18.835Z,9.00
2022-12-24T20:30:48.988Z,9.00
2022-12-24T20:33:19.144Z,9.00
2022-12-24T20:35:50.231Z,9.00
2022-12-24T20:38:20.515Z,9.10
2022-12-24T20:40:53.213Z,9.10
2022-12-24T20:43:24.591Z,9.00
2022-12-24T20:45:58.458Z,8.90
2022-12-24T20:48:28.800Z,8.90
2022-12-24T20:50:58.982Z,9.00
2022-12-24T20:53:31.971Z,9.00
2022-12-24T20:56:09.034Z,8.90
2022-12-24T20:58:39.262Z,9.00
2022-12-24T21:01:19.561Z,9.00
2022-12-24T21:03:50.561Z,8.90
2022-12-24T21:06:20.981Z,8.90
2022-12-24T21:08:54.360Z,8.80
2022-12-24T21:11:39.941Z,8.90
2022-12-24T21:14:10.813Z,8.90
2022-12-24T21:16:42.675Z,8.80
2022-12-24T21:19:17.663Z,8.80
2022-12-24T21:21:48.874Z,8.80
2022-12-24T21:24:21.965Z,8.80
2022-12-24T21:26:54.661Z,8.90
2022-12-24T21:29:24.784Z,9.00
2022-12-24T21:31:54.913Z,9.00
2022-12-24T21:34:25.059Z,9.10
2022-12-24T21:36:56.568Z,9.10
2022-12-24T21:39:26.746Z,9.00
2022-12-24T21:41:59.818Z,9.00
2022-12-24T21:44:29.985Z,8.90
2022-12-24T21:47:00.109Z,8.90
2022-12-24T21:49:42.720Z,8.90
2022-12-24T21:52:15.192Z,8.90
2022-12-24T21:54:42.789Z,8.80
2022-12-24T21:57:27.914Z,8.80
2022-12-24T22:00:21.663Z,8.80
2022-12-24T22:02:53.402Z,8.80
2022-12-24T22:05:24.635Z,8.80
2022-12-24T22:08:07.940Z,8.80
2022-12-24T22:10:50.667Z,8.70
2022-12-24T22:13:23.646Z,8.70
2022-12-24T22:15:56.906Z,8.70
2022-12-24T22:18:31.374Z,8.70
2022-12-24T22:21:07.831Z,8.70
2022-12-24T22:23:42.327Z,8.70
2022-12-24T22:26:17.206Z,8.60
2022-12-24T22:28:49.922Z,8.60
2022-12-24T22:31:21.117Z,8.60
2022-12-24T22:33:51.427Z,8.80
2022-12-24T22:36:21.626Z,8.90
2022-12-24T22:38:51.745Z,8.80
2022-12-24T22:41:22.067Z,8.70
2022-12-24T22:43:54.989Z,8.70
2022-12-24T22:46:25.321Z,8.70
2022-12-24T22:48:55.521Z,8.70
2022-12-24T22:51:26.235Z,8.70
2022-12-24T22:53:56.948Z,8.70
2022-12-24T22:56:27.152Z,8.70
2022-12-24T22:59:00.707Z,8.70
2022-12-24T23:01:39.432Z,8.60
2022-12-24T23:04:10.582Z,8.60
2022-12-24T23:06:41.538Z,8.70
2022-12-24T23:09:15.910Z,8.80
2022-12-24T23:11:48.326Z,8.80
2022-12-24T23:14:36.732Z,8.80
2022-12-24T23:17:07.357Z,8.80
2022-12-24T23:19:37.923Z,8.80
2022-12-24T23:22:09.118Z,8.80
2022-12-24T23:24:41.574Z,8.80
2022-12-24T23:27:11.827Z,8.90
2022-12-24T23:29:45.600Z,9.00
2022-12-24T23:32:17.062Z,9.00
2022-12-24T23:34:47.475Z,9.00
2022-12-24T23:37:17.594Z,9.00
2022-12-24T23:39:48.412Z,9.00
2022-12-24T23:42:18.561Z,8.90
2022-12-24T23:44:51.575Z,9.00
2022-12-24T23:47:22.126Z,9.00
2022-12-24T23:49:52.347Z,9.10
2022-12-24T23:52:24.741Z,9.00
2022-12-24T23:54:54.902Z,9.10
2022-12-24T23:57:24.954Z,9.10
2022-12-24T23:59:57.707Z,9.10
